sensor_id;sensor_type;location;lat;lon;timestamp;pressure;altitude;pressure_sealevel;temperature;humidity
57763;BME280;43592;42.524;12.052;2022-11-20T00:02:08;95776.81;;;6.33;100.00
57763;BME280;43592;42.524;12.052;2022-11-20T00:04:33;95789.00;;;6.34;100.00
57763;BME280;43592;42.524;12.052;2022-11-20T00:06:59;95795.09;;;6.34;100.00
57763;BME280;43592;42.524;12.052;2022-11-20T00:09:24;95797.75;;;6.34;100.00
57763;BME280;43592;42.524;12.052;2022-11-20T00:11:49;95789.00;;;6.34;100.00
57763;BME280;43592;42.524;12.052;2022-11-20T00:14:15;95792.75;;;6.33;100.00
57763;BME280;43592;42.524;12.052;2022-11-20T00:16:40;95800.41;;;6.34;100.00
57763;BME280;43592;42.524;12.052;2022-11-20T00:19:06;95794.31;;;6.34;100.00
57763;BME280;43592;42.524;12.052;2022-11-20T00:21:31;95798.84;;;6.33;100.00
57763;BME280;43592;42.524;12.052;2022-11-20T00:23:57;95806.03;;;6.33;100.00
57763;BME280;43592;42.524;12.052;2022-11-20T00:26:23;95806.81;;;6.33;100.00
57763;BME280;43592;42.524;12.052;2022-11-20T00:28:50;95811.47;;;6.36;100.00
57763;BME280;43592;42.524;12.052;2022-11-20T00:31:16;95815.25;;;6.35;100.00
57763;BME280;43592;42.524;12.052;2022-11-20T00:33:42;95809.16;;;6.35;100.00
57763;BME280;43592;42.524;12.052;2022-11-20T00:36:12;95818.66;;;6.36;100.00
57763;BME280;43592;42.524;12.052;2022-11-20T00:38:38;95814.47;;;6.35;100.00
57763;BME280;43592;42.524;12.052;2022-11-20T00:41:04;95816.00;;;6.36;100.00
57763;BME280;43592;42.524;12.052;2022-11-20T00:43:30;95809.25;;;6.38;100.00
57763;BME280;43592;42.524;12.052;2022-11-20T00:45:59;95806.59;;;6.38;100.00
57763;BME280;43592;42.524;12.052;2022-11-20T00:48:25;95793.31;;;6.38;100.00
57763;BME280;43592;42.524;12.052;2022-11-20T00:50:51;95791.78;;;6.37;100.00
57763;BME280;43592;42.524;12.052;2022-11-20T00:53:17;95803.19;;;6.38;100.00
57763;BME280;43592;42.524;12.052;2022-11-20T00:55:42;95803.19;;;6.38;100.00
57763;BME280;43592;42.524;12.052;2022-11-20T00:58:08;95814.25;;;6.40;100.00
57763;BME280;43592;42.524;12.052;2022-11-20T01:00:33;95818.78;;;6.39;100.00
57763;BME280;43592;42.524;12.052;2022-11-20T01:02:59;95818.78;;;6.39;100.00
57763;BME280;43592;42.524;12.052;2022-11-20T01:05:24;95822.56;;;6.38;100.00
57763;BME280;43592;42.524;12.052;2022-11-20T01:07:50;95824.53;;;6.41;100.00
57763;BME280;43592;42.524;12.052;2022-11-20T01:10:15;95819.22;;;6.41;100.00
57763;BME280;43592;42.524;12.052;2022-11-20T01:12:41;95831.41;;;6.42;100.00
57763;BME280;43592;42.524;12.052;2022-11-20T01:15:06;95830.31;;;6.43;100.00
57763;BME280;43592;42.524;12.052;2022-11-20T01:17:33;95835.63;;;6.43;100.00
57763;BME280;43592;42.524;12.052;2022-11-20T01:19:58;95839.81;;;6.44;100.00
57763;BME280;43592;42.524;12.052;2022-11-20T01:22:24;95841.38;;;6.45;100.00
57763;BME280;43592;42.524;12.052;2022-11-20T01:24:49;95836.06;;;6.45;100.00
57763;BME280;43592;42.524;12.052;2022-11-20T01:27:15;95850.91;;;6.46;100.00
57763;BME280;43592;42.524;12.052;2022-11-20T01:29:40;95850.56;;;6.48;100.00
57763;BME280;43592;42.524;12.052;2022-11-20T01:32:06;95852.91;;;6.49;100.00
57763;BME280;43592;42.524;12.052;2022-11-20T01:34:31;95860.88;;;6.49;100.00
57763;BME280;43592;42.524;12.052;2022-11-20T01:36:57;95857.78;;;6.47;100.00
57763;BME280;43592;42.524;12.052;2022-11-20T01:39:23;95860.44;;;6.47;100.00
57763;BME280;43592;42.524;12.052;2022-11-20T01:41:49;95863.53;;;6.49;100.00
57763;BME280;43592;42.524;12.052;2022-11-20T01:44:43;95864.31;;;6.50;100.00
57763;BME280;43592;42.524;12.052;2022-11-20T01:47:12;95865.84;;;6.51;100.00
57763;BME280;43592;42.524;12.052;2022-11-20T01:49:46;95859.00;;;6.50;100.00
57763;BME280;43592;42.524;12.052;2022-11-20T01:52:17;95853.69;;;6.50;100.00
57763;BME280;43592;42.524;12.052;2022-11-20T01:54:49;95852.56;;;6.51;100.00
57763;BME280;43592;42.524;12.052;2022-11-20T01:57:16;95853.34;;;6.51;100.00
57763;BME280;43592;42.524;12.052;2022-11-20T01:59:47;95858.31;;;6.53;100.00
57763;BME280;43592;42.524;12.052;2022-11-20T02:02:15;95857.25;;;6.54;100.00
57763;BME280;43592;42.524;12.052;2022-11-20T02:04:41;95851.91;;;6.54;100.00
57763;BME280;43592;42.524;12.052;2022-11-20T02:07:06;95851.56;;;6.56;100.00
57763;BME280;43592;42.524;12.052;2022-11-20T02:09:32;95855.47;;;6.58;100.00
57763;BME280;43592;42.524;12.052;2022-11-20T02:11:57;95857.34;;;6.58;100.00
57763;BME280;43592;42.524;12.052;2022-11-20T02:14:24;95859.22;;;6.57;100.00
57763;BME280;43592;42.524;12.052;2022-11-20T02:16:50;95855.78;;;6.57;100.00
57763;BME280;43592;42.524;12.052;2022-11-20T02:19:29;95861.53;;;6.59;100.00
57763;BME280;43592;42.524;12.052;2022-11-20T02:21:59;95859.34;;;6.61;100.00
57763;BME280;43592;42.524;12.052;2022-11-20T02:24:26;95858.22;;;6.62;100.00
57763;BME280;43592;42.524;12.052;2022-11-20T02:26:53;95863.22;;;6.63;100.00
57763;BME280;43592;42.524;12.052;2022-11-20T02:29:26;95859.78;;;6.63;100.00
57763;BME280;43592;42.524;12.052;2022-11-20T02:31:52;95859.44;;;6.64;100.00
57763;BME280;43592;42.524;12.052;2022-11-20T02:34:19;95849.94;;;6.63;100.00
57763;BME280;43592;42.524;12.052;2022-11-20T02:36:44;95838.53;;;6.63;100.00
57763;BME280;43592;42.524;12.052;2022-11-20T02:39:11;95836.94;;;6.62;100.00
57763;BME280;43592;42.524;12.052;2022-11-20T02:41:38;95835.50;;;6.64;100.00
57763;BME280;43592;42.524;12.052;2022-11-20T02:44:04;95833.19;;;6.63;100.00
57763;BME280;43592;42.524;12.052;2022-11-20T02:46:30;95833.19;;;6.63;100.00
57763;BME280;43592;42.524;12.052;2022-11-20T02:48:56;95832.09;;;6.64;100.00
57763;BME280;43592;42.524;12.052;2022-11-20T02:51:21;95832.09;;;6.64;100.00
57763;BME280;43592;42.524;12.052;2022-11-20T02:53:47;95836.28;;;6.65;100.00
57763;BME280;43592;42.524;12.052;2022-11-20T02:56:12;95833.63;;;6.65;100.00
57763;BME280;43592;42.524;12.052;2022-11-20T02:58:38;95844.25;;;6.65;100.00
57763;BME280;43592;42.524;12.052;2022-11-20T03:01:03;95847.38;;;6.67;100.00
57763;BME280;43592;42.524;12.052;2022-11-20T03:03:29;95841.72;;;6.68;100.00
57763;BME280;43592;42.524;12.052;2022-11-20T03:05:54;95840.16;;;6.67;100.00
57763;BME280;43592;42.524;12.052;2022-11-20T03:08:20;95847.72;;;6.65;100.00
57763;BME280;43592;42.524;12.052;2022-11-20T03:10:45;95836.28;;;6.65;100.00
57763;BME280;43592;42.524;12.052;2022-11-20T03:13:11;95832.84;;;6.64;100.00
57763;BME280;43592;42.524;12.052;2022-11-20T03:15:36;95831.63;;;6.62;100.00
57763;BME280;43592;42.524;12.052;2022-11-20T03:18:02;95828.56;;;6.60;100.00
57763;BME280;43592;42.524;12.052;2022-11-20T03:20:28;95822.78;;;6.58;100.00
57763;BME280;43592;42.524;12.052;2022-11-20T03:22:53;95827.19;;;6.53;100.00
57763;BME280;43592;42.524;12.052;2022-11-20T03:25:20;95830.53;;;6.50;100.00
57763;BME280;43592;42.524;12.052;2022-11-20T03:27:45;95837.28;;;6.48;100.00
57763;BME280;43592;42.524;12.052;2022-11-20T03:30:11;95832.97;;;6.43;100.00
57763;BME280;43592;42.524;12.052;2022-11-20T03:32:36;95828.63;;;6.39;100.00
57763;BME280;43592;42.524;12.052;2022-11-20T03:35:02;95832.72;;;6.36;100.00
57763;BME280;43592;42.524;12.052;2022-11-20T03:37:27;95827.31;;;6.33;100.00
57763;BME280;43592;42.524;12.052;2022-11-20T03:39:53;95834.97;;;6.34;100.00
57763;BME280;43592;42.524;12.052;2022-11-20T03:42:18;95835.28;;;6.33;100.00
57763;BME280;43592;42.524;12.052;2022-11-20T03:45:02;95823.53;;;6.34;100.00
57763;BME280;43592;42.524;12.052;2022-11-20T03:47:28;95834.63;;;6.36;100.00
57763;BME280;43592;42.524;12.052;2022-11-20T03:49:53;95843.50;;;6.40;100.00
57763;BME280;43592;42.524;12.052;2022-11-20T03:52:19;95862.63;;;6.45;100.00
57763;BME280;43592;42.524;12.052;2022-11-20T03:54:44;95848.72;;;6.48;100.00
57763;BME280;43592;42.524;12.052;2022-11-20T03:57:10;95849.91;;;6.51;100.00
57763;BME280;43592;42.524;12.052;2022-11-20T03:59:35;95851.13;;;6.53;100.00
57763;BME280;43592;42.524;12.052;2022-11-20T04:02:01;95852.34;;;6.56;100.00
57763;BME280;43592;42.524;12.052;2022-11-20T04:04:26;95849.38;;;6.58;100.00
57763;BME280;43592;42.524;12.052;2022-11-20T04:06:51;95846.38;;;6.59;100.00
57763;BME280;43592;42.524;12.052;2022-11-20T04:09:17;95844.81;;;6.58;100.00
57763;BME280;43592;42.524;12.052;2022-11-20T04:11:42;95845.13;;;6.57;100.00
57763;BME280;43592;42.524;12.052;2022-11-20T04:14:17;95854.59;;;6.54;100.00
57763;BME280;43592;42.524;12.052;2022-11-20T04:16:43;95848.25;;;6.46;100.00
57763;BME280;43592;42.524;12.052;2022-11-20T04:19:13;95851.34;;;6.36;100.00
57763;BME280;43592;42.524;12.052;2022-11-20T04:21:39;95846.78;;;6.24;100.00
57763;BME280;43592;42.524;12.052;2022-11-20T04:24:04;95844.44;;;6.11;100.00
57763;BME280;43592;42.524;12.052;2022-11-20T04:26:30;95841.09;;;6.01;100.00
57763;BME280;43592;42.524;12.052;2022-11-20T04:28:56;95839.28;;;5.93;100.00
57763;BME280;43592;42.524;12.052;2022-11-20T04:31:23;95848.09;;;5.85;100.00
57763;BME280;43592;42.524;12.052;2022-11-20T04:33:48;95848.28;;;5.80;100.00
57763;BME280;43592;42.524;12.052;2022-11-20T04:36:18;95844.28;;;5.74;100.00
57763;BME280;43592;42.524;12.052;2022-11-20T04:38:44;95836.66;;;5.72;100.00
57763;BME280;43592;42.524;12.052;2022-11-20T04:41:12;95839.97;;;5.69;100.00
57763;BME280;43592;42.524;12.052;2022-11-20T04:43:39;95842.47;;;5.66;100.00
57763;BME280;43592;42.524;12.052;2022-11-20T04:46:05;95845.38;;;5.60;100.00
57763;BME280;43592;42.524;12.052;2022-11-20T04:48:30;95849.75;;;5.56;100.00
57763;BME280;43592;42.524;12.052;2022-11-20T04:50:56;95854.94;;;5.53;100.00
57763;BME280;43592;42.524;12.052;2022-11-20T04:53:22;95851.38;;;5.49;100.00
57763;BME280;43592;42.524;12.052;2022-11-20T04:55:48;95855.13;;;5.48;100.00
57763;BME280;43592;42.524;12.052;2022-11-20T04:58:13;95860.75;;;5.46;100.00
57763;BME280;43592;42.524;12.052;2022-11-20T05:00:39;95873.25;;;5.46;100.00
57763;BME280;43592;42.524;12.052;2022-11-20T05:03:04;95877.78;;;5.45;100.00
57763;BME280;43592;42.524;12.052;2022-11-20T05:05:30;95882.63;;;5.43;100.00
57763;BME280;43592;42.524;12.052;2022-11-20T05:07:56;95881.41;;;5.40;100.00
57763;BME280;43592;42.524;12.052;2022-11-20T05:10:22;95883.75;;;5.42;100.00
57763;BME280;43592;42.524;12.052;2022-11-20T05:12:48;95891.25;;;5.40;100.00
57763;BME280;43592;42.524;12.052;2022-11-20T05:15:13;95882.50;;;5.39;100.00
57763;BME280;43592;42.524;12.052;2022-11-20T05:17:39;95884.69;;;5.37;100.00
57763;BME280;43592;42.524;12.052;2022-11-20T05:20:04;95890.66;;;5.34;100.00
57763;BME280;43592;42.524;12.052;2022-11-20T05:22:30;95901.63;;;5.33;100.00
57763;BME280;43592;42.524;12.052;2022-11-20T05:24:56;95890.41;;;5.27;100.00
57763;BME280;43592;42.524;12.052;2022-11-20T05:27:21;95903.09;;;5.22;100.00
57763;BME280;43592;42.524;12.052;2022-11-20T05:29:47;95911.53;;;5.15;100.00
57763;BME280;43592;42.524;12.052;2022-11-20T05:32:12;95914.41;;;5.10;100.00
57763;BME280;43592;42.524;12.052;2022-11-20T05:34:38;95920.19;;;5.03;100.00
57763;BME280;43592;42.524;12.052;2022-11-20T05:37:03;95919.16;;;4.95;100.00
57763;BME280;43592;42.524;12.052;2022-11-20T05:39:29;95927.47;;;4.85;100.00
57763;BME280;43592;42.524;12.052;2022-11-20T05:41:54;95927.63;;;4.80;100.00
57763;BME280;43592;42.524;12.052;2022-11-20T05:44:38;95921.09;;;4.78;100.00
57763;BME280;43592;42.524;12.052;2022-11-20T05:47:04;95925.94;;;4.76;100.00
57763;BME280;43592;42.524;12.052;2022-11-20T05:49:29;95928.72;;;4.79;100.00
57763;BME280;43592;42.524;12.052;2022-11-20T05:51:55;95931.06;;;4.81;100.00
57763;BME280;43592;42.524;12.052;2022-11-20T05:54:20;95927.75;;;4.84;100.00
57763;BME280;43592;42.524;12.052;2022-11-20T05:56:46;95935.53;;;4.89;100.00
57763;BME280;43592;42.524;12.052;2022-11-20T05:59:11;95931.31;;;4.97;100.00
57763;BME280;43592;42.524;12.052;2022-11-20T06:01:37;95935.31;;;5.03;100.00
57763;BME280;43592;42.524;12.052;2022-11-20T06:04:02;95932.50;;;5.08;100.00
57763;BME280;43592;42.524;12.052;2022-11-20T06:06:28;95929.66;;;5.13;100.00
57763;BME280;43592;42.524;12.052;2022-11-20T06:08:54;95927.44;;;5.15;100.00
57763;BME280;43592;42.524;12.052;2022-11-20T06:11:19;95929.34;;;5.14;100.00
57763;BME280;43592;42.524;12.052;2022-11-20T06:13:45;95927.78;;;5.13;100.00
57763;BME280;43592;42.524;12.052;2022-11-20T06:16:11;95933.22;;;5.17;100.00
57763;BME280;43592;42.524;12.052;2022-11-20T06:18:37;95929.50;;;5.18;100.00
57763;BME280;43592;42.524;12.052;2022-11-20T06:21:07;95926.50;;;5.20;100.00
57763;BME280;43592;42.524;12.052;2022-11-20T06:23:33;95925.72;;;5.19;100.00
57763;BME280;43592;42.524;12.052;2022-11-20T06:26:05;95924.78;;;5.24;100.00
57763;BME280;43592;42.524;12.052;2022-11-20T06:28:31;95932.22;;;5.30;100.00
57763;BME280;43592;42.524;12.052;2022-11-20T06:30:57;95935.00;;;5.34;100.00
57763;BME280;43592;42.524;12.052;2022-11-20T06:33:23;95932.81;;;5.36;100.00
57763;BME280;43592;42.524;12.052;2022-11-20T06:35:49;95942.78;;;5.39;100.00
57763;BME280;43592;42.524;12.052;2022-11-20T06:38:14;95939.00;;;5.40;100.00
57763;BME280;43592;42.524;12.052;2022-11-20T06:40:40;95946.66;;;5.42;100.00
57763;BME280;43592;42.524;12.052;2022-11-20T06:43:06;95938.81;;;5.45;100.00
57763;BME280;43592;42.524;12.052;2022-11-20T06:45:31;95944.59;;;5.47;100.00
57763;BME280;43592;42.524;12.052;2022-11-20T06:47:57;95948.78;;;5.48;100.00
57763;BME280;43592;42.524;12.052;2022-11-20T06:50:23;95950.38;;;5.49;100.00
57763;BME280;43592;42.524;12.052;2022-11-20T06:52:49;95953.59;;;5.55;100.00
57763;BME280;43592;42.524;12.052;2022-11-20T06:55:14;95949.50;;;5.57;100.00
57763;BME280;43592;42.524;12.052;2022-11-20T06:57:40;95955.41;;;5.63;100.00
57763;BME280;43592;42.524;12.052;2022-11-20T07:00:05;95956.31;;;5.67;100.00
57763;BME280;43592;42.524;12.052;2022-11-20T07:02:31;95953.13;;;5.74;100.00
57763;BME280;43592;42.524;12.052;2022-11-20T07:04:57;95959.16;;;5.83;100.00
57763;BME280;43592;42.524;12.052;2022-11-20T07:07:22;95958.31;;;5.91;100.00
57763;BME280;43592;42.524;12.052;2022-11-20T07:09:48;95955.19;;;5.98;100.00
57763;BME280;43592;42.524;12.052;2022-11-20T07:12:13;95952.56;;;6.10;100.00
57763;BME280;43592;42.524;12.052;2022-11-20T07:14:39;95953.06;;;6.24;100.00
57763;BME280;43592;42.524;12.052;2022-11-20T07:17:04;95963.22;;;6.43;100.00
57763;BME280;43592;42.524;12.052;2022-11-20T07:19:29;95965.34;;;6.62;100.00
57763;BME280;43592;42.524;12.052;2022-11-20T07:21:55;95969.59;;;6.88;100.00
57763;BME280;43592;42.524;12.052;2022-11-20T07:24:20;95973.59;;;7.18;100.00
57763;BME280;43592;42.524;12.052;2022-11-20T07:26:46;95977.94;;;7.48;100.00
57763;BME280;43592;42.524;12.052;2022-11-20T07:29:13;95975.88;;;7.81;100.00
57763;BME280;43592;42.524;12.052;2022-11-20T07:31:39;95983.13;;;8.09;100.00
57763;BME280;43592;42.524;12.052;2022-11-20T07:34:04;95989.69;;;8.40;100.00
57763;BME280;43592;42.524;12.052;2022-11-20T07:36:30;95984.00;;;8.69;100.00
57763;BME280;43592;42.524;12.052;2022-11-20T07:38:55;96002.78;;;8.89;100.00
57763;BME280;43592;42.524;12.052;2022-11-20T07:41:21;96004.63;;;9.01;100.00
57763;BME280;43592;42.524;12.052;2022-11-20T07:43:46;95995.13;;;9.19;100.00
57763;BME280;43592;42.524;12.052;2022-11-20T07:46:12;96015.09;;;9.41;100.00
57763;BME280;43592;42.524;12.052;2022-11-20T07:48:37;96018.09;;;9.55;100.00
57763;BME280;43592;42.524;12.052;2022-11-20T07:51:03;96019.31;;;9.58;100.00
57763;BME280;43592;42.524;12.052;2022-11-20T07:53:28;96024.97;;;9.72;100.00
57763;BME280;43592;42.524;12.052;2022-11-20T07:55:54;96032.53;;;9.86;100.00
57763;BME280;43592;42.524;12.052;2022-11-20T07:58:20;96027.56;;;10.04;100.00
57763;BME280;43592;42.524;12.052;2022-11-20T08:00:45;96034.19;;;10.10;100.00
57763;BME280;43592;42.524;12.052;2022-11-20T08:03:11;96036.66;;;10.19;100.00
57763;BME280;43592;42.524;12.052;2022-11-20T08:05:37;96039.69;;;10.17;100.00
57763;BME280;43592;42.524;12.052;2022-11-20T08:08:02;96046.94;;;10.17;100.00
57763;BME280;43592;42.524;12.052;2022-11-20T08:10:28;96050.72;;;10.16;100.00
57763;BME280;43592;42.524;12.052;2022-11-20T08:12:53;96054.97;;;10.17;100.00
57763;BME280;43592;42.524;12.052;2022-11-20T08:15:38;96043.38;;;10.28;100.00
57763;BME280;43592;42.524;12.052;2022-11-20T08:18:05;96054.09;;;10.28;100.00
57763;BME280;43592;42.524;12.052;2022-11-20T08:20:31;96051.19;;;10.37;100.00
57763;BME280;43592;42.524;12.052;2022-11-20T08:22:57;96050.56;;;10.44;100.00
57763;BME280;43592;42.524;12.052;2022-11-20T08:25:23;96053.25;;;10.44;100.00
57763;BME280;43592;42.524;12.052;2022-11-20T08:27:49;96051.75;;;10.46;100.00
57763;BME280;43592;42.524;12.052;2022-11-20T08:30:14;96056.13;;;10.54;100.00
57763;BME280;43592;42.524;12.052;2022-11-20T08:32:40;96052.97;;;10.49;99.97
57763;BME280;43592;42.524;12.052;2022-11-20T08:35:06;96049.63;;;10.55;100.00
57763;BME280;43592;42.524;12.052;2022-11-20T08:37:31;96058.53;;;10.60;100.00
57763;BME280;43592;42.524;12.052;2022-11-20T08:39:57;96063.09;;;10.59;100.00
57763;BME280;43592;42.524;12.052;2022-11-20T08:42:22;96055.63;;;10.68;100.00
57763;BME280;43592;42.524;12.052;2022-11-20T08:44:48;96071.91;;;10.79;100.00
57763;BME280;43592;42.524;12.052;2022-11-20T08:47:13;96064.91;;;10.74;96.83
57763;BME280;43592;42.524;12.052;2022-11-20T08:49:39;96060.22;;;10.68;98.94
57763;BME280;43592;42.524;12.052;2022-11-20T08:52:04;96071.13;;;10.59;98.30
57763;BME280;43592;42.524;12.052;2022-11-20T08:54:30;96072.03;;;10.67;98.53
57763;BME280;43592;42.524;12.052;2022-11-20T08:56:56;96087.03;;;10.71;100.00
57763;BME280;43592;42.524;12.052;2022-11-20T08:59:21;96084.41;;;10.75;99.43
57763;BME280;43592;42.524;12.052;2022-11-20T09:01:47;96079.22;;;10.82;100.00
57763;BME280;43592;42.524;12.052;2022-11-20T09:04:13;96092.09;;;10.96;100.00
57763;BME280;43592;42.524;12.052;2022-11-20T09:06:42;96086.22;;;11.10;99.92
57763;BME280;43592;42.524;12.052;2022-11-20T09:09:08;96081.66;;;11.10;97.05
57763;BME280;43592;42.524;12.052;2022-11-20T09:11:34;96088.53;;;11.11;96.69
57763;BME280;43592;42.524;12.052;2022-11-20T09:14:00;96090.72;;;11.06;94.79
57763;BME280;43592;42.524;12.052;2022-11-20T09:16:27;96095.97;;;10.98;96.01
57763;BME280;43592;42.524;12.052;2022-11-20T09:18:53;96084.06;;;10.96;93.63
57763;BME280;43592;42.524;12.052;2022-11-20T09:21:18;96087.28;;;11.05;97.13
57763;BME280;43592;42.524;12.052;2022-11-20T09:23:44;96079.53;;;11.00;92.21
57763;BME280;43592;42.524;12.052;2022-11-20T09:26:11;96081.78;;;10.98;92.71
57763;BME280;43592;42.524;12.052;2022-11-20T09:28:37;96072.44;;;10.88;91.21
57763;BME280;43592;42.524;12.052;2022-11-20T09:31:09;96083.44;;;10.83;90.74
57763;BME280;43592;42.524;12.052;2022-11-20T09:33:35;96068.03;;;10.76;91.13
57763;BME280;43592;42.524;12.052;2022-11-20T09:36:00;96068.03;;;10.76;89.06
57763;BME280;43592;42.524;12.052;2022-11-20T09:38:26;96063.00;;;10.75;90.12
57763;BME280;43592;42.524;12.052;2022-11-20T09:40:58;96062.88;;;10.87;91.29
57763;BME280;43592;42.524;12.052;2022-11-20T09:43:38;96053.00;;;10.91;89.01
57763;BME280;43592;42.524;12.052;2022-11-20T09:56:17;96069.03;;;11.34;89.94
57763;BME280;43592;42.524;12.052;2022-11-20T09:58:48;96082.19;;;11.42;89.23
57763;BME280;43592;42.524;12.052;2022-11-20T10:01:15;96076.88;;;11.46;88.40
57763;BME280;43592;42.524;12.052;2022-11-20T10:06:10;96082.19;;;11.42;87.04
57763;BME280;43592;42.524;12.052;2022-11-20T10:08:41;96084.63;;;11.51;87.26
57763;BME280;43592;42.524;12.052;2022-11-20T10:11:16;96081.84;;;11.67;90.09
57763;BME280;43592;42.524;12.052;2022-11-20T10:16:45;96077.84;;;11.57;86.89
57763;BME280;43592;42.524;12.052;2022-11-20T10:19:30;96083.44;;;11.49;93.00
57763;BME280;43592;42.524;12.052;2022-11-20T10:24:42;96075.22;;;11.61;89.84
57763;BME280;43592;42.524;12.052;2022-11-20T10:29:59;96066.94;;;11.69;86.46
57763;BME280;43592;42.524;12.052;2022-11-20T10:32:28;96060.44;;;11.71;85.58
57763;BME280;43592;42.524;12.052;2022-11-20T10:37:24;96064.97;;;11.89;88.50
57763;BME280;43592;42.524;12.052;2022-11-20T10:42:36;96067.28;;;11.91;82.90
57763;BME280;43592;42.524;12.052;2022-11-20T10:45:18;96071.00;;;12.09;89.52
57763;BME280;43592;42.524;12.052;2022-11-20T10:47:45;96062.41;;;12.27;84.94
57763;BME280;43592;42.524;12.052;2022-11-20T10:50:11;96061.16;;;12.51;84.14
57763;BME280;43592;42.524;12.052;2022-11-20T10:57:53;96057.22;;;12.71;89.18
57763;BME280;43592;42.524;12.052;2022-11-20T11:00:22;96048.25;;;12.60;84.19
57763;BME280;43592;42.524;12.052;2022-11-20T11:02:49;96057.56;;;12.40;79.39
57763;BME280;43592;42.524;12.052;2022-11-20T11:07:46;96056.19;;;11.93;80.79
57763;BME280;43592;42.524;12.052;2022-11-20T11:10:17;96061.94;;;11.68;82.28
57763;BME280;43592;42.524;12.052;2022-11-20T11:12:45;96067.31;;;11.45;80.81
57763;BME280;43592;42.524;12.052;2022-11-20T11:15:12;96057.13;;;11.31;84.98
57763;BME280;43592;42.524;12.052;2022-11-20T11:17:45;96058.91;;;11.23;91.35
57763;BME280;43592;42.524;12.052;2022-11-20T11:20:14;96062.56;;;10.92;85.63
57763;BME280;43592;42.524;12.052;2022-11-20T11:22:47;96067.53;;;10.71;85.46
57763;BME280;43592;42.524;12.052;2022-11-20T11:25:32;96057.66;;;10.55;91.79
57763;BME280;43592;42.524;12.052;2022-11-20T11:28:03;96062.34;;;10.39;93.73
57763;BME280;43592;42.524;12.052;2022-11-20T11:30:29;96067.53;;;10.32;97.37
57763;BME280;43592;42.524;12.052;2022-11-20T11:33:05;96072.97;;;10.20;90.36
57763;BME280;43592;42.524;12.052;2022-11-20T11:35:31;96069.38;;;10.12;90.52
57763;BME280;43592;42.524;12.052;2022-11-20T11:38:07;96070.25;;;10.00;87.26
57763;BME280;43592;42.524;12.052;2022-11-20T11:40:36;96071.66;;;9.94;87.63
57763;BME280;43592;42.524;12.052;2022-11-20T11:43:07;96075.09;;;9.95;90.92
57763;BME280;43592;42.524;12.052;2022-11-20T11:46:02;96083.19;;;9.98;96.71
57763;BME280;43592;42.524;12.052;2022-11-20T11:48:31;96097.00;;;10.00;89.84
57763;BME280;43592;42.524;12.052;2022-11-20T11:50:56;96085.28;;;10.05;90.61
57763;BME280;43592;42.524;12.052;2022-11-20T11:53:22;96086.44;;;10.07;91.94
57763;BME280;43592;42.524;12.052;2022-11-20T11:56:10;96091.09;;;10.10;89.22
57763;BME280;43592;42.524;12.052;2022-11-20T11:58:48;96082.09;;;10.19;95.57
57763;BME280;43592;42.524;12.052;2022-11-20T12:06:27;96077.88;;;10.18;86.64
57763;BME280;43592;42.524;12.052;2022-11-20T12:09:01;96076.25;;;10.13;87.52
57763;BME280;43592;42.524;12.052;2022-11-20T12:13:58;96081.47;;;10.06;87.46
57763;BME280;43592;42.524;12.052;2022-11-20T12:16:27;96074.13;;;10.03;88.01
57763;BME280;43592;42.524;12.052;2022-11-20T12:18:53;96066.81;;;10.00;90.60
57763;BME280;43592;42.524;12.052;2022-11-20T12:21:20;96068.72;;;9.99;90.03
57763;BME280;43592;42.524;12.052;2022-11-20T12:29:31;96054.94;;;9.97;91.41
57763;BME280;43592;42.524;12.052;2022-11-20T12:37:44;96066.72;;;9.96;89.69
57763;BME280;43592;42.524;12.052;2022-11-20T12:40:17;96064.84;;;9.97;90.25
57763;BME280;43592;42.524;12.052;2022-11-20T12:46:03;96067.09;;;9.95;90.14
57763;BME280;43592;42.524;12.052;2022-11-20T12:56:20;96055.34;;;9.99;84.81
57763;BME280;43592;42.524;12.052;2022-11-20T13:06:46;96054.53;;;10.15;87.05
57763;BME280;43592;42.524;12.052;2022-11-20T13:09:14;96055.50;;;10.06;87.98
57763;BME280;43592;42.524;12.052;2022-11-20T13:11:42;96056.47;;;9.98;86.90
57763;BME280;43592;42.524;12.052;2022-11-20T13:16:56;96046.41;;;9.92;83.00
57763;BME280;43592;42.524;12.052;2022-11-20T13:19:24;96049.06;;;9.92;85.60
57763;BME280;43592;42.524;12.052;2022-11-20T13:21:49;96062.44;;;9.92;86.27
57763;BME280;43592;42.524;12.052;2022-11-20T13:26:43;96049.50;;;9.94;89.21
57763;BME280;43592;42.524;12.052;2022-11-20T13:29:11;96045.25;;;9.93;83.03
57763;BME280;43592;42.524;12.052;2022-11-20T13:31:38;96046.41;;;9.92;87.62
57763;BME280;43592;42.524;12.052;2022-11-20T13:34:09;96040.63;;;9.89;83.31
57763;BME280;43592;42.524;12.052;2022-11-20T13:36:37;96040.28;;;9.91;81.97
57763;BME280;43592;42.524;12.052;2022-11-20T13:39:23;96042.53;;;9.89;82.31
57763;BME280;43592;42.524;12.052;2022-11-20T13:41:53;96040.19;;;9.87;84.93
57763;BME280;43592;42.524;12.052;2022-11-20T13:44:30;96038.31;;;9.88;82.90
57763;BME280;43592;42.524;12.052;2022-11-20T13:46:58;96036.75;;;9.87;81.05
57763;BME280;43592;42.524;12.052;2022-11-20T13:51:55;96035.28;;;9.89;82.27
57763;BME280;43592;42.524;12.052;2022-11-20T13:54:43;96031.13;;;9.92;83.50
57763;BME280;43592;42.524;12.052;2022-11-20T13:57:39;96039.31;;;9.99;84.81
57763;BME280;43592;42.524;12.052;2022-11-20T14:00:14;96041.88;;;10.11;87.38
57763;BME280;43592;42.524;12.052;2022-11-20T14:02:40;96045.03;;;10.17;90.49
57763;BME280;43592;42.524;12.052;2022-11-20T14:05:06;96041.59;;;10.17;89.35
57763;BME280;43592;42.524;12.052;2022-11-20T14:07:41;96042.28;;;10.14;86.41
57763;BME280;43592;42.524;12.052;2022-11-20T14:10:27;96041.88;;;10.11;88.47
57763;BME280;43592;42.524;12.052;2022-11-20T14:12:53;96041.69;;;10.04;86.27